createdAt,value
2018-06-13T00:00:17.949Z,18.56
2018-06-13T00:02:46.838Z,18.49
2018-06-13T00:05:15.766Z,18.31
2018-06-13T00:07:44.569Z,18.45
2018-06-13T00:10:13.410Z,18.46
2018-06-13T00:12:42.282Z,18.33
2018-06-13T00:15:11.090Z,18.48
2018-06-13T00:17:40.216Z,18.33
2018-06-13T00:20:09.185Z,18.39
2018-06-13T00:22:38.573Z,18.37
2018-06-13T00:25:07.487Z,18.25
2018-06-13T00:27:36.266Z,18.06
2018-06-13T00:30:05.136Z,18.20
2018-06-13T00:32:34.117Z,18.13
2018-06-13T00:35:04.863Z,18.12
2018-06-13T00:37:33.774Z,18.03
2018-06-13T00:40:02.641Z,17.95
2018-06-13T00:42:31.450Z,18.12
2018-06-13T00:45:00.309Z,18.31
2018-06-13T00:47:29.105Z,18.36
2018-06-13T00:49:57.988Z,18.19
2018-06-13T00:52:26.850Z,18.21
2018-06-13T00:54:55.878Z,17.90
2018-06-13T00:57:24.889Z,18.01
2018-06-13T00:59:53.781Z,17.89
2018-06-13T01:02:22.669Z,18.01
2018-06-13T01:04:51.427Z,17.99
2018-06-13T01:07:20.558Z,18.08
2018-06-13T01:09:49.313Z,18.35
2018-06-13T01:12:19.105Z,18.37
2018-06-13T01:14:47.946Z,18.21
2018-06-13T01:17:16.762Z,18.22
2018-06-13T01:19:45.568Z,18.13
2018-06-13T01:22:14.333Z,18.19
2018-06-13T01:24:43.111Z,18.16
2018-06-13T01:27:11.946Z,18.35
2018-06-13T01:29:40.799Z,18.30
2018-06-13T01:32:09.547Z,18.19
2018-06-13T01:34:38.479Z,18.18
2018-06-13T01:37:07.413Z,18.24
2018-06-13T01:39:36.321Z,18.29
2018-06-13T01:42:05.165Z,17.94
2018-06-13T01:44:33.904Z,18.17
2018-06-13T01:47:02.891Z,18.03
2018-06-13T01:49:31.797Z,17.95
2018-06-13T01:52:00.705Z,17.89
2018-06-13T01:54:29.688Z,17.79
2018-06-13T01:56:58.654Z,17.86
2018-06-13T01:59:27.774Z,17.63
2018-06-13T02:01:56.849Z,17.65
2018-06-13T02:04:25.678Z,18.02
2018-06-13T02:06:54.433Z,17.84
2018-06-13T02:09:23.214Z,18.17
2018-06-13T02:11:52.244Z,17.80
2018-06-13T02:14:21.632Z,17.65
2018-06-13T02:16:50.455Z,17.80
2018-06-13T02:19:19.240Z,17.88
2018-06-13T02:21:49.959Z,17.78
2018-06-13T02:24:19.156Z,17.48
2018-06-13T02:26:48.129Z,17.45
2018-06-13T02:29:16.810Z,17.91
2018-06-13T02:31:45.594Z,17.77
2018-06-13T02:34:14.401Z,17.39
2018-06-13T02:36:43.315Z,17.44
2018-06-13T02:39:12.243Z,17.58
2018-06-13T02:41:41.156Z,17.51
2018-06-13T02:44:09.931Z,17.31
2018-06-13T02:46:38.726Z,17.36
2018-06-13T02:49:07.410Z,17.58
2018-06-13T02:51:36.661Z,17.44
2018-06-13T02:54:05.444Z,17.28
2018-06-13T02:56:34.299Z,17.51
2018-06-13T02:59:03.292Z,17.42
2018-06-13T03:01:32.182Z,17.37
2018-06-13T03:04:00.992Z,17.50
2018-06-13T03:06:29.760Z,17.35
2018-06-13T03:08:58.638Z,17.31
2018-06-13T03:11:27.338Z,17.35
2018-06-13T03:13:56.569Z,17.16
2018-06-13T03:16:25.347Z,17.20
2018-06-13T03:18:54.485Z,17.05
2018-06-13T03:21:23.238Z,17.05
2018-06-13T03:23:52.109Z,17.09
2018-06-13T03:26:20.922Z,17.12
2018-06-13T03:28:49.727Z,17.09
2018-06-13T03:31:18.665Z,16.89
2018-06-13T03:33:47.616Z,17.10
2018-06-13T03:36:16.460Z,16.78
2018-06-13T03:38:45.254Z,16.53
2018-06-13T03:41:14.097Z,16.30
2018-06-13T03:43:42.945Z,16.44
2018-06-13T03:46:11.839Z,16.64
2018-06-13T03:48:41.141Z,16.03
2018-06-13T03:51:10.383Z,16.08
2018-06-13T03:53:39.304Z,16.19
2018-06-13T03:56:08.336Z,16.48
2018-06-13T03:58:37.342Z,16.58
2018-06-13T04:01:06.198Z,16.31
2018-06-13T04:03:35.061Z,16.44
2018-06-13T04:06:04.068Z,16.37
2018-06-13T04:08:33.585Z,16.52
2018-06-13T04:11:02.367Z,16.51
2018-06-13T04:13:31.277Z,16.27
2018-06-13T04:15:59.945Z,16.54
2018-06-13T04:18:28.870Z,16.57
2018-06-13T04:20:57.759Z,16.79
2018-06-13T04:23:26.855Z,16.65
2018-06-13T04:25:55.721Z,16.86
2018-06-13T04:28:24.482Z,16.69
2018-06-13T04:30:53.363Z,16.60
2018-06-13T04:33:22.065Z,16.67
2018-06-13T04:35:50.939Z,16.72
2018-06-13T04:38:19.759Z,16.55
2018-06-13T04:40:48.670Z,16.48
2018-06-13T04:43:17.678Z,16.58
2018-06-13T04:45:46.847Z,16.43
2018-06-13T04:48:15.695Z,16.29
2018-06-13T04:50:44.622Z,16.34
2018-06-13T04:53:13.333Z,16.83
2018-06-13T04:55:42.209Z,16.66
2018-06-13T04:58:11.180Z,16.66
2018-06-13T05:00:40.309Z,16.79
2018-06-13T05:03:09.311Z,16.42
2018-06-13T05:05:38.193Z,16.39
2018-06-13T05:08:07.197Z,16.12
2018-06-13T05:10:36.121Z,16.36
2018-06-13T05:13:05.009Z,16.32
2018-06-13T05:15:33.995Z,16.56
2018-06-13T05:18:02.793Z,16.82
2018-06-13T05:20:31.582Z,16.59
2018-06-13T05:23:00.434Z,17.06
2018-06-13T05:25:29.443Z,16.79
2018-06-13T05:27:58.285Z,16.75
2018-06-13T05:30:27.501Z,16.83
2018-06-13T05:32:56.419Z,16.72
2018-06-13T05:35:25.169Z,16.75
2018-06-13T05:37:54.155Z,16.72
2018-06-13T05:40:23.057Z,16.55
2018-06-13T05:42:52.015Z,16.72
2018-06-13T05:45:20.857Z,16.70
2018-06-13T05:47:49.657Z,16.79
2018-06-13T05:50:18.556Z,17.03
2018-06-13T05:52:47.441Z,16.42
2018-06-13T05:55:16.225Z,16.51
2018-06-13T05:57:45.029Z,16.86
2018-06-13T06:00:14.086Z,16.45
2018-06-13T06:02:42.883Z,16.51
2018-06-13T06:05:11.581Z,16.67
2018-06-13T06:07:40.602Z,16.53
2018-06-13T06:10:09.555Z,16.70
2018-06-13T06:12:38.413Z,16.53
2018-06-13T06:15:07.236Z,16.42
2018-06-13T06:17:36.876Z,16.48
2018-06-13T06:20:07.705Z,16.56
2018-06-13T06:22:36.574Z,16.59
2018-06-13T06:25:05.530Z,16.99
2018-06-13T06:27:34.474Z,16.94
2018-06-13T06:30:03.590Z,16.84
2018-06-13T06:32:32.327Z,16.90
2018-06-13T06:35:01.040Z,16.64
2018-06-13T06:37:29.940Z,16.80
2018-06-13T06:39:58.834Z,16.84
2018-06-13T06:42:27.767Z,16.83
2018-06-13T06:44:56.532Z,16.90
2018-06-13T06:47:25.898Z,16.80
2018-06-13T06:49:54.715Z,16.76
2018-06-13T06:52:24.087Z,16.62
2018-06-13T06:54:52.761Z,16.87
2018-06-13T06:57:21.567Z,16.87
2018-06-13T06:59:50.532Z,16.74
2018-06-13T07:02:19.451Z,16.88
2018-06-13T07:04:48.349Z,16.76
2018-06-13T07:07:17.207Z,16.98
2018-06-13T07:09:46.019Z,16.81
2018-06-13T07:12:15.350Z,16.64
2018-06-13T07:14:44.161Z,16.79
2018-06-13T07:17:13.231Z,16.81
2018-06-13T07:19:42.090Z,16.93
2018-06-13T07:22:11.257Z,17.08
2018-06-13T07:24:40.404Z,16.64
2018-06-13T07:27:09.270Z,16.73
2018-06-13T07:29:38.382Z,16.75
2018-06-13T07:32:07.318Z,16.33
2018-06-13T07:34:36.146Z,16.65
2018-06-13T07:37:04.825Z,16.88
2018-06-13T07:39:33.701Z,16.27
2018-06-13T07:42:02.926Z,16.20
2018-06-13T07:44:31.602Z,16.26
2018-06-13T07:47:00.812Z,16.12
2018-06-13T07:49:30.024Z,16.03
2018-06-13T07:51:59.307Z,15.76
2018-06-13T07:54:28.590Z,16.00
2018-06-13T07:56:57.874Z,16.13
2018-06-13T07:59:48.871Z,16.34
2018-06-13T08:02:20.436Z,16.18
2018-06-13T08:04:50.155Z,16.33
2018-06-13T08:07:19.434Z,16.39
2018-06-13T08:09:48.493Z,16.62
2018-06-13T08:12:17.352Z,16.62
2018-06-13T08:14:46.559Z,16.75
2018-06-13T08:17:15.372Z,16.82
2018-06-13T08:19:44.458Z,16.85
2018-06-13T08:22:14.175Z,17.20
2018-06-13T08:24:52.852Z,16.71
2018-06-13T08:27:22.242Z,16.92
2018-06-13T08:29:51.485Z,17.05
2018-06-13T08:32:20.446Z,17.05
2018-06-13T08:34:49.417Z,17.20
2018-06-13T08:37:18.509Z,17.27
2018-06-13T08:39:47.360Z,16.97
2018-06-13T08:42:16.292Z,17.35
2018-06-13T08:44:45.370Z,17.58
2018-06-13T08:47:14.302Z,17.57
2018-06-13T08:49:43.197Z,17.53
2018-06-13T08:52:12.038Z,17.10
2018-06-13T08:54:40.958Z,17.33
2018-06-13T08:57:09.923Z,17.37
2018-06-13T08:59:38.815Z,17.30
2018-06-13T09:02:07.651Z,16.97
2018-06-13T09:04:36.674Z,17.18
2018-06-13T09:07:05.727Z,17.13
2018-06-13T09:09:34.835Z,16.84
2018-06-13T09:12:03.829Z,16.86
2018-06-13T09:14:32.835Z,16.65
2018-06-13T09:17:01.957Z,16.49
2018-06-13T09:19:31.109Z,16.62
2018-06-13T09:22:00.024Z,16.68
2018-06-13T09:24:29.030Z,16.78
2018-06-13T09:26:58.208Z,16.47
2018-06-13T09:29:27.341Z,16.62
2018-06-13T09:31:56.260Z,16.73
2018-06-13T09:34:25.169Z,16.74
2018-06-13T09:36:53.922Z,16.67
2018-06-13T09:39:22.757Z,16.58
2018-06-13T09:41:57.075Z,16.68
2018-06-13T09:44:26.155Z,16.69
2018-06-13T09:46:55.297Z,16.55
2018-06-13T09:49:24.656Z,16.71
2018-06-13T09:51:53.752Z,16.56
2018-06-13T09:54:22.781Z,16.40
2018-06-13T09:56:51.720Z,16.36
2018-06-13T09:59:21.282Z,16.31
2018-06-13T10:02:26.702Z,16.21
2018-06-13T10:04:55.723Z,16.20
2018-06-13T10:07:24.898Z,16.21
2018-06-13T10:09:53.753Z,16.28
2018-06-13T10:12:22.758Z,16.25
2018-06-13T10:14:52.098Z,16.63
2018-06-13T10:17:21.152Z,16.60
2018-06-13T10:19:50.101Z,16.47
2018-06-13T10:22:19.169Z,16.46
2018-06-13T10:24:48.268Z,16.53
2018-06-13T10:27:22.145Z,16.60
2018-06-13T10:29:51.359Z,16.55
2018-06-13T10:32:20.586Z,16.66
2018-06-13T10:34:49.567Z,16.61
2018-06-13T10:37:18.447Z,16.69
2018-06-13T10:39:47.719Z,16.72
2018-06-13T10:42:16.848Z,17.01
2018-06-13T10:44:45.567Z,17.09
2018-06-13T10:47:14.422Z,17.24
2018-06-13T10:49:43.603Z,17.29
2018-06-13T10:52:12.526Z,17.45
2018-06-13T10:54:41.602Z,17.17
2018-06-13T10:57:10.596Z,17.43
2018-06-13T10:59:39.530Z,17.62
2018-06-13T11:02:08.777Z,17.51
2018-06-13T11:04:37.798Z,17.51
2018-06-13T11:07:06.761Z,18.05
2018-06-13T11:09:35.878Z,18.58
2018-06-13T11:12:04.697Z,18.57
2018-06-13T11:14:33.534Z,18.74
2018-06-13T11:17:02.720Z,18.58
2018-06-13T11:19:31.753Z,19.45
2018-06-13T11:22:00.842Z,19.39
2018-06-13T11:24:29.637Z,19.45
2018-06-13T11:26:58.700Z,19.05
2018-06-13T11:29:27.718Z,18.66
2018-06-13T11:31:56.695Z,18.33
2018-06-13T11:34:26.005Z,17.82
2018-06-13T11:36:54.874Z,17.67
2018-06-13T11:39:23.806Z,17.49
2018-06-13T11:41:52.658Z,17.67
2018-06-13T11:44:21.625Z,17.48
2018-06-13T11:46:50.607Z,17.58
2018-06-13T11:49:19.739Z,17.62
2018-06-13T11:51:49.030Z,17.74
2018-06-13T11:54:17.952Z,17.81
2018-06-13T11:56:47.359Z,17.86
2018-06-13T11:59:17.458Z,17.78
2018-06-13T12:01:46.394Z,18.18
2018-06-13T12:04:15.908Z,18.25
2018-06-13T12:06:45.295Z,18.01
2018-06-13T12:09:14.318Z,17.86
2018-06-13T12:11:43.156Z,18.12
2018-06-13T12:14:12.315Z,18.02
2018-06-13T12:16:41.181Z,17.93
2018-06-13T12:19:10.464Z,17.98
2018-06-13T12:21:40.202Z,18.09
2018-06-13T12:24:09.185Z,18.12
2018-06-13T12:26:38.467Z,17.85
2018-06-13T12:29:07.390Z,17.97
2018-06-13T12:31:36.275Z,17.90
2018-06-13T12:34:05.145Z,18.05
2018-06-13T12:36:34.109Z,17.81
2018-06-13T12:39:03.586Z,17.89
2018-06-13T12:41:32.619Z,18.30
2018-06-13T12:44:01.540Z,18.33
2018-06-13T12:46:30.452Z,18.36
2018-06-13T12:48:59.600Z,18.72
2018-06-13T12:51:28.772Z,18.41
2018-06-13T12:53:57.910Z,18.41
2018-06-13T12:56:26.743Z,18.50
2018-06-13T12:58:56.113Z,18.64
2018-06-13T13:01:25.597Z,18.15
2018-06-13T13:03:54.490Z,17.91
2018-06-13T13:06:23.261Z,17.99
2018-06-13T13:08:52.322Z,18.16
2018-06-13T13:11:21.357Z,18.20
2018-06-13T13:13:50.647Z,18.40
2018-06-13T13:16:19.762Z,18.67
2018-06-13T13:18:49.332Z,18.61
2018-06-13T13:21:18.720Z,18.70
2018-06-13T13:23:47.881Z,18.95
2018-06-13T13:26:16.774Z,18.78
2018-06-13T13:28:45.499Z,18.69
2018-06-13T13:31:14.409Z,19.43
2018-06-13T13:33:43.592Z,18.55
2018-06-13T13:36:12.668Z,18.88
2018-06-13T13:38:41.757Z,19.08
2018-06-13T13:41:10.692Z,18.52
2018-06-13T13:43:39.567Z,18.09
2018-06-13T13:46:08.606Z,18.31
2018-06-13T13:48:37.476Z,18.08
2018-06-13T13:51:06.582Z,17.78
2018-06-13T13:53:35.454Z,18.06
2018-06-13T13:56:04.259Z,17.72
2018-06-13T13:58:33.485Z,17.57
2018-06-13T14:01:02.406Z,17.58
2018-06-13T14:03:31.362Z,17.81
2018-06-13T14:06:00.333Z,17.37
2018-06-13T14:08:29.676Z,17.29
2018-06-13T14:10:58.495Z,17.38
2018-06-13T14:13:27.407Z,16.92
2018-06-13T14:15:56.649Z,17.26
2018-06-13T14:18:25.581Z,17.30
2018-06-13T14:20:54.445Z,17.27
2018-06-13T14:23:23.411Z,17.08
2018-06-13T14:25:52.522Z,17.38
2018-06-13T14:28:21.694Z,17.46
2018-06-13T14:30:50.877Z,17.62
2018-06-13T14:33:19.971Z,17.66
2018-06-13T14:35:49.101Z,17.74
2018-06-13T14:38:18.019Z,17.74
2018-06-13T14:40:46.934Z,17.58
2018-06-13T14:43:15.813Z,17.64
2018-06-13T14:45:45.489Z,17.68
2018-06-13T14:48:14.407Z,17.92
2018-06-13T14:50:43.557Z,17.66
2018-06-13T14:53:12.454Z,17.60
2018-06-13T14:55:52.614Z,17.45
2018-06-13T14:58:21.490Z,17.50
2018-06-13T15:00:50.654Z,17.48
2018-06-13T15:03:19.493Z,17.76
2018-06-13T15:05:48.560Z,17.69
2018-06-13T15:08:17.635Z,18.09
2018-06-13T15:10:46.518Z,18.38
2018-06-13T15:13:16.615Z,18.57
2018-06-13T15:15:45.826Z,18.65
2018-06-13T15:18:14.766Z,19.06
2018-06-13T15:20:43.716Z,19.12
2018-06-13T15:23:12.834Z,18.94
2018-06-13T15:25:41.775Z,18.93
2018-06-13T15:28:10.555Z,18.65
2018-06-13T15:30:39.570Z,18.45
2018-06-13T15:33:08.831Z,17.62
2018-06-13T15:35:37.768Z,17.51
2018-06-13T15:38:06.797Z,17.37
2018-06-13T15:40:35.950Z,17.48
2018-06-13T15:43:04.967Z,17.14
2018-06-13T15:45:33.921Z,17.11
2018-06-13T15:48:03.001Z,17.01
2018-06-13T15:50:32.711Z,17.02
2018-06-13T15:53:01.887Z,16.89
2018-06-13T15:55:31.028Z,16.94
2018-06-13T15:57:59.829Z,17.08
2018-06-13T16:00:28.690Z,17.12
2018-06-13T16:02:57.700Z,17.23
2018-06-13T16:05:26.842Z,17.16
2018-06-13T16:07:56.119Z,17.16
2018-06-13T16:10:24.997Z,17.13
2018-06-13T16:12:53.998Z,17.44
2018-06-13T16:15:22.921Z,17.32
2018-06-13T16:17:51.781Z,17.45
2018-06-13T16:20:20.599Z,17.53
2018-06-13T16:22:49.522Z,17.48
2018-06-13T16:25:18.697Z,17.49
2018-06-13T16:27:47.417Z,17.68
2018-06-13T16:30:16.853Z,17.54
2018-06-13T16:32:45.580Z,17.39
2018-06-13T16:35:14.569Z,17.27
2018-06-13T16:37:43.448Z,17.15
2018-06-13T16:40:12.351Z,17.06
2018-06-13T16:42:41.353Z,17.08
2018-06-13T16:45:10.162Z,16.89
2018-06-13T16:47:39.228Z,16.89
2018-06-13T16:50:19.865Z,16.92
2018-06-13T16:52:56.418Z,17.03
2018-06-13T16:55:25.639Z,17.16
2018-06-13T16:57:54.454Z,17.04
2018-06-13T17:00:23.695Z,16.74
2018-06-13T17:02:52.893Z,16.88
2018-06-13T17:05:21.682Z,16.78
2018-06-13T17:07:50.794Z,16.95
2018-06-13T17:10:19.571Z,16.95
2018-06-13T17:12:48.526Z,16.97
2018-06-13T17:15:17.410Z,16.76
2018-06-13T17:17:46.415Z,16.93
2018-06-13T17:20:16.560Z,17.07
2018-06-13T17:22:45.387Z,16.66
2018-06-13T17:25:14.343Z,16.77
2018-06-13T17:27:43.810Z,16.79
2018-06-13T17:30:12.701Z,16.71
2018-06-13T17:32:41.621Z,16.75
2018-06-13T17:35:10.651Z,16.93
2018-06-13T17:37:39.668Z,16.79
2018-06-13T17:40:11.781Z,16.70
2018-06-13T17:42:40.790Z,16.60
2018-06-13T17:45:09.840Z,16.58
2018-06-13T17:47:38.988Z,16.62
2018-06-13T17:50:07.774Z,16.67
2018-06-13T17:52:36.560Z,16.56
2018-06-13T17:55:05.538Z,16.46
2018-06-13T17:57:35.722Z,16.45
2018-06-13T18:00:05.191Z,16.58
2018-06-13T18:02:34.169Z,16.46
2018-06-13T18:05:03.087Z,16.45
2018-06-13T18:07:31.852Z,16.43
2018-06-13T18:10:01.228Z,16.55
2018-06-13T18:12:30.267Z,16.43
2018-06-13T18:14:59.176Z,16.27
2018-06-13T18:17:28.138Z,16.23
2018-06-13T18:19:57.086Z,16.31
2018-06-13T18:22:26.036Z,16.37
2018-06-13T18:24:55.235Z,16.48
2018-06-13T18:27:24.094Z,16.56
2018-06-13T18:29:52.960Z,16.66
2018-06-13T18:32:21.801Z,16.61
2018-06-13T18:34:50.645Z,16.57
2018-06-13T18:37:19.573Z,16.52
2018-06-13T18:39:48.762Z,16.46
2018-06-13T18:42:17.887Z,16.45
2018-06-13T18:44:47.170Z,16.31
2018-06-13T18:47:16.121Z,16.48
2018-06-13T18:49:44.943Z,16.39
2018-06-13T18:52:13.890Z,16.29
2018-06-13T18:54:42.700Z,16.37
2018-06-13T18:57:11.430Z,16.39
2018-06-13T18:59:40.131Z,16.39
2018-06-13T19:02:09.925Z,16.43
2018-06-13T19:04:39.401Z,16.24
2018-06-13T19:07:08.381Z,16.21
2018-06-13T19:09:37.326Z,16.20
2018-06-13T19:12:06.554Z,16.29
2018-06-13T19:14:35.745Z,16.31
2018-06-13T19:17:04.597Z,16.22
2018-06-13T19:19:33.425Z,16.41
2018-06-13T19:22:02.292Z,16.23
2018-06-13T19:24:31.402Z,16.15
2018-06-13T19:27:00.368Z,16.15
2018-06-13T19:29:29.395Z,16.12
2018-06-13T19:31:58.255Z,16.22
2018-06-13T19:34:27.034Z,16.18
2018-06-13T19:36:56.254Z,16.16
2018-06-13T19:39:25.290Z,16.21
2018-06-13T19:41:54.131Z,16.16
2018-06-13T19:44:23.038Z,16.11
2018-06-13T19:46:52.325Z,16.16
2018-06-13T19:49:21.746Z,16.10
2018-06-13T19:51:50.706Z,16.21
2018-06-13T19:54:24.576Z,16.17
2018-06-13T19:56:53.665Z,16.21
2018-06-13T19:59:22.690Z,16.20
2018-06-13T20:01:51.732Z,16.16
2018-06-13T20:04:25.811Z,16.07
2018-06-13T20:06:54.612Z,16.12
2018-06-13T20:09:23.677Z,16.15
2018-06-13T20:11:52.557Z,16.17
2018-06-13T20:14:26.559Z,16.15
2018-06-13T20:17:01.180Z,16.05
2018-06-13T20:19:36.614Z,16.14
2018-06-13T20:22:05.575Z,16.17
2018-06-13T20:24:34.596Z,16.11
2018-06-13T20:27:08.655Z,16.06
2018-06-13T20:29:42.925Z,16.10
2018-06-13T20:32:11.879Z,16.11
2018-06-13T20:34:41.008Z,16.12
2018-06-13T20:37:10.110Z,16.17
2018-06-13T20:39:39.053Z,16.18
2018-06-13T20:42:07.971Z,16.02
2018-06-13T20:44:36.987Z,16.08
2018-06-13T20:47:06.034Z,16.11
2018-06-13T20:49:35.038Z,16.08
2018-06-13T20:52:04.482Z,15.95
2018-06-13T20:54:33.481Z,15.88
2018-06-13T20:57:02.495Z,15.90
2018-06-13T20:59:31.458Z,16.01
2018-06-13T21:02:00.488Z,16.04
2018-06-13T21:04:29.543Z,15.95
2018-06-13T21:06:58.601Z,16.09
2018-06-13T21:09:27.875Z,16.01
2018-06-13T21:11:56.958Z,15.93
2018-06-13T21:14:26.179Z,16.00
2018-06-13T21:16:55.178Z,15.94
2018-06-13T21:19:24.134Z,16.04
2018-06-13T21:21:53.223Z,16.05
2018-06-13T21:24:22.438Z,16.10
2018-06-13T21:26:51.346Z,15.91
2018-06-13T21:29:20.439Z,15.85
2018-06-13T21:31:49.338Z,15.97
2018-06-13T21:34:19.104Z,16.13
2018-06-13T21:36:48.309Z,15.95
2018-06-13T21:39:17.418Z,15.96
2018-06-13T21:41:46.339Z,15.73
2018-06-13T21:44:15.272Z,15.79
2018-06-13T21:46:44.119Z,15.85
2018-06-13T21:49:13.094Z,15.88
2018-06-13T21:51:42.235Z,15.89
2018-06-13T21:54:11.387Z,15.93
2018-06-13T21:56:40.458Z,15.85
2018-06-13T21:59:09.286Z,15.76
2018-06-13T22:01:38.189Z,15.76
2018-06-13T22:04:07.210Z,15.82
2018-06-13T22:06:36.241Z,15.74
2018-06-13T22:09:07.744Z,15.81
2018-06-13T22:11:40.685Z,15.83
2018-06-13T22:14:09.646Z,15.88
2018-06-13T22:16:38.664Z,15.80
2018-06-13T22:19:07.843Z,15.90
2018-06-13T22:21:36.684Z,15.90
2018-06-13T22:24:05.403Z,16.02
2018-06-13T22:26:34.617Z,15.88
2018-06-13T22:29:03.656Z,15.82
2018-06-13T22:31:32.524Z,15.80
2018-06-13T22:34:01.394Z,15.78
2018-06-13T22:36:30.175Z,15.84
2018-06-13T22:38:59.108Z,15.73
2018-06-13T22:41:28.083Z,15.57
2018-06-13T22:43:57.052Z,15.58
2018-06-13T22:46:26.497Z,15.60
2018-06-13T22:48:55.386Z,15.46
2018-06-13T22:51:24.202Z,15.45
2018-06-13T22:53:53.177Z,15.38
2018-06-13T22:56:22.148Z,15.27
2018-06-13T22:58:51.158Z,15.36
2018-06-13T23:01:20.180Z,15.48
2018-06-13T23:03:49.111Z,15.52
2018-06-13T23:06:18.230Z,15.48
2018-06-13T23:08:47.202Z,15.47
2018-06-13T23:11:16.010Z,15.57
2018-06-13T23:13:45.045Z,15.46
2018-06-13T23:16:13.889Z,15.51
2018-06-13T23:18:42.815Z,15.64
2018-06-13T23:21:11.672Z,15.47
2018-06-13T23:23:40.593Z,15.50
2018-06-13T23:26:09.501Z,15.63
2018-06-13T23:28:38.570Z,15.61
2018-06-13T23:31:07.549Z,15.68
2018-06-13T23:33:36.514Z,15.70
2018-06-13T23:36:05.472Z,15.65
2018-06-13T23:38:34.239Z,15.69
2018-06-13T23:41:03.011Z,15.65
2018-06-13T23:43:31.943Z,15.60
2018-06-13T23:46:00.867Z,15.56
2018-06-13T23:48:29.712Z,15.42
2018-06-13T23:50:58.564Z,15.31
2018-06-13T23:53:27.482Z,15.23
2018-06-13T23:55:56.458Z,15.29
2018-06-13T23:58:25.229Z,15.33
